Time;durP1;ratioP1;P1;durP2;ratioP2;P2;SDS_P1;SDS_P2;PMS_P1;PMS_P2;Temp;Humidity;BMP_temperature;BMP_pressure;BME280_temperature;BME280_humidity;BME280_pressure;Samples;Min_cycle;Max_cycle;Signal;HPM_P1;HPM_P2
2023/07/03 00:00:56;;;;;;;11.00;3.30;;;14.20;99.90;;;;;;5094054;28;20259;-47
2023/07/03 00:03:22;;;;;;;13.87;3.37;;;14.10;99.90;;;;;;5093874;28;20693;-49
2023/07/03 00:05:48;;;;;;;11.13;3.27;;;14.10;99.90;;;;;;5093837;28;20207;-47
2023/07/03 00:08:15;;;;;;;9.97;3.07;;;14.10;99.90;;;;;;5093929;28;20199;-47
2023/07/03 00:10:41;;;;;;;12.80;3.33;;;14.10;99.90;;;;;;5094093;28;20233;-48
2023/07/03 00:13:09;;;;;;;11.87;3.57;;;14.10;99.90;;;;;;5094018;28;20631;-47
2023/07/03 00:15:35;;;;;;;16.67;3.57;;;14.00;99.90;;;;;;5093728;28;20274;-48
2023/07/03 00:18:01;;;;;;;18.50;3.70;;;14.00;99.90;;;;;;5094016;28;20685;-46
2023/07/03 00:20:27;;;;;;;13.67;3.70;;;14.00;99.90;;;;;;5092335;28;20206;-46
2023/07/03 00:22:54;;;;;;;11.77;3.60;;;13.90;99.90;;;;;;5093850;28;20175;-47
2023/07/03 00:25:20;;;;;;;13.60;3.17;;;13.90;99.90;;;;;;5093619;28;20654;-48
2023/07/03 00:27:46;;;;;;;15.07;4.17;;;13.80;99.90;;;;;;5094135;28;20182;-48
2023/07/03 00:30:13;;;;;;;15.23;3.13;;;13.80;99.90;;;;;;5093468;28;20270;-47
2023/07/03 00:32:39;;;;;;;16.83;3.60;;;13.80;99.90;;;;;;5093508;28;20179;-47
2023/07/03 00:35:06;;;;;;;16.17;5.03;;;13.80;99.90;;;;;;5093623;28;20211;-48
2023/07/03 00:37:31;;;;;;;14.17;3.10;;;13.80;99.90;;;;;;5094058;28;20628;-47
2023/07/03 00:39:57;;;;;;;11.77;3.60;;;13.70;99.90;;;;;;5093397;28;20225;-46
2023/07/03 00:42:24;;;;;;;15.83;3.23;;;13.70;99.90;;;;;;5094094;28;20688;-46
2023/07/03 00:44:50;;;;;;;11.53;3.60;;;13.70;99.90;;;;;;5093723;28;20244;-45
2023/07/03 00:47:15;;;;;;;12.90;3.50;;;13.70;99.90;;;;;;5093430;28;20258;-47
2023/07/03 00:49:41;;;;;;;12.90;4.03;;;13.70;99.90;;;;;;5093451;28;20175;-46
2023/07/03 00:52:08;;;;;;;12.13;3.07;;;13.70;99.90;;;;;;5093314;28;20193;-48
2023/07/03 00:54:34;;;;;;;14.67;3.20;;;13.70;99.90;;;;;;5094490;28;20198;-47
2023/07/03 00:56:59;;;;;;;12.73;3.80;;;13.70;99.90;;;;;;5093608;28;20244;-47
2023/07/03 00:59:25;;;;;;;15.87;4.23;;;13.60;99.90;;;;;;5094014;28;20298;-44
2023/07/03 01:02:11;;;;;;;12.10;3.47;;;13.60;99.90;;;;;;5093876;28;20179;-47
2023/07/03 01:04:51;;;;;;;13.93;3.53;;;13.60;99.90;;;;;;5093508;28;20206;-47
2023/07/03 01:07:22;;;;;;;12.20;3.20;;;13.60;99.90;;;;;;5093632;28;20510;-48
2023/07/03 01:09:53;;;;;;;16.33;3.17;;;13.50;99.90;;;;;;5093458;28;20180;-45
2023/07/03 01:12:23;;;;;;;11.30;3.13;;;13.50;99.90;;;;;;5093145;28;20170;-48
2023/07/03 01:14:49;;;;;;;13.73;3.57;;;13.50;99.90;;;;;;5093143;28;20199;-47
2023/07/03 01:17:15;;;;;;;12.93;3.60;;;13.50;99.90;;;;;;5093163;28;20183;-43
2023/07/03 01:19:45;;;;;;;13.33;3.37;;;13.50;99.90;;;;;;5093250;28;20605;-45
2023/07/03 01:22:28;;;;;;;12.90;3.30;;;13.40;99.90;;;;;;5093604;28;20533;-45
2023/07/03 01:25:01;;;;;;;10.03;3.23;;;13.40;99.90;;;;;;5093120;28;20201;-47
2023/07/03 01:27:37;;;;;;;12.87;3.60;;;13.40;99.90;;;;;;5091792;28;20175;-47
2023/07/03 01:30:07;;;;;;;14.83;3.63;;;13.40;99.90;;;;;;5093360;28;20174;-47
2023/07/03 01:32:35;;;;;;;11.93;3.27;;;13.30;99.90;;;;;;5092933;28;20179;-46
2023/07/03 01:35:03;;;;;;;11.40;2.90;;;13.20;99.90;;;;;;5092920;28;20206;-46
2023/07/03 01:37:30;;;;;;;13.57;3.37;;;13.30;99.90;;;;;;5092931;28;20643;-47
2023/07/03 01:39:58;;;;;;;10.40;3.30;;;13.20;99.90;;;;;;5092741;28;20215;-46
2023/07/03 01:42:26;;;;;;;14.00;4.07;;;13.20;99.90;;;;;;5092891;28;20265;-46
2023/07/03 01:44:51;;;;;;;11.73;3.53;;;13.20;99.90;;;;;;5092767;28;20218;-48
2023/07/03 01:47:18;;;;;;;9.93;3.57;;;13.20;99.90;;;;;;5095258;28;20178;-47
2023/07/03 01:49:43;;;;;;;15.97;3.73;;;13.20;99.90;;;;;;5098092;28;20189;-41
2023/07/03 01:52:30;;;;;;;13.00;3.73;;;13.20;99.90;;;;;;5096923;28;20251;-42
2023/07/03 01:55:03;;;;;;;14.90;3.30;;;13.20;99.90;;;;;;5096753;28;20612;-42
2023/07/03 01:57:41;;;;;;;15.80;3.37;;;13.20;99.90;;;;;;5096781;28;20183;-42
2023/07/03 02:00:10;;;;;;;19.87;3.73;;;13.20;99.90;;;;;;5095012;28;20215;-43
2023/07/03 02:02:37;;;;;;;16.30;3.53;;;13.20;99.90;;;;;;5096669;28;20643;-42
2023/07/03 02:05:07;;;;;;;18.03;3.57;;;13.30;99.90;;;;;;5096499;28;20565;-41
2023/07/03 02:07:35;;;;;;;18.30;4.43;;;13.20;99.90;;;;;;5096492;28;20210;-44
2023/07/03 02:10:02;;;;;;;15.53;4.03;;;13.20;99.90;;;;;;5096205;28;20228;-42
2023/07/03 02:12:28;;;;;;;14.97;3.27;;;13.20;99.90;;;;;;5096123;28;20248;-43
2023/07/03 02:14:54;;;;;;;15.00;3.40;;;13.30;99.90;;;;;;5096071;28;20670;-42
2023/07/03 02:17:19;;;;;;;14.13;3.40;;;13.30;99.90;;;;;;5096080;28;20206;-42
2023/07/03 02:19:45;;;;;;;15.57;3.97;;;13.30;99.90;;;;;;5095933;28;20722;-41
2023/07/03 02:22:11;;;;;;;12.57;3.30;;;13.30;99.90;;;;;;5096066;28;20174;-41
2023/07/03 02:24:36;;;;;;;19.27;3.37;;;13.30;99.90;;;;;;5095911;28;20286;-44
2023/07/03 02:27:02;;;;;;;14.60;3.40;;;13.40;99.90;;;;;;5096410;28;20174;-41
2023/07/03 02:29:28;;;;;;;15.03;3.70;;;13.40;99.90;;;;;;5096077;28;20187;-41
2023/07/03 02:31:53;;;;;;;19.47;4.70;;;13.40;99.90;;;;;;5096003;28;20536;-43
2023/07/03 02:34:20;;;;;;;19.53;3.70;;;13.40;99.90;;;;;;5095876;28;20209;-42
2023/07/03 02:36:47;;;;;;;16.30;3.67;;;13.50;99.90;;;;;;5095663;28;20198;-42
2023/07/03 02:39:13;;;;;;;16.83;4.00;;;13.50;99.90;;;;;;5094090;28;20217;-43
2023/07/03 02:41:38;;;;;;;20.10;4.23;;;13.50;99.90;;;;;;5095863;28;20175;-43
2023/07/03 02:44:04;;;;;;;14.10;3.67;;;13.60;99.90;;;;;;5095476;28;20183;-43
2023/07/03 02:46:30;;;;;;;14.87;3.70;;;13.70;99.90;;;;;;5095715;28;20163;-44
2023/07/03 02:48:55;;;;;;;16.37;3.80;;;13.70;99.90;;;;;;5096625;28;20179;-43
2023/07/03 02:51:21;;;;;;;16.77;4.10;;;13.70;99.90;;;;;;5095608;28;20198;-42
2023/07/03 02:53:47;;;;;;;15.40;3.63;;;13.70;99.90;;;;;;5095478;28;20203;-42
2023/07/03 02:56:13;;;;;;;16.90;4.53;;;13.70;99.90;;;;;;5096128;28;20291;-43
2023/07/03 02:58:39;;;;;;;18.40;4.57;;;13.80;99.90;;;;;;5095205;28;20210;-40
2023/07/03 03:01:04;;;;;;;14.00;3.27;;;13.80;99.90;;;;;;5094037;28;20265;-39
2023/07/03 03:03:30;;;;;;;16.00;3.90;;;13.80;99.90;;;;;;5095054;28;20224;-43
2023/07/03 03:05:56;;;;;;;17.37;4.20;;;13.90;99.90;;;;;;5095336;28;20278;-44
2023/07/03 03:08:23;;;;;;;14.70;3.93;;;13.90;99.90;;;;;;5095513;28;20195;-42
2023/07/03 03:10:50;;;;;;;13.37;4.10;;;13.90;99.90;;;;;;5095101;28;20175;-44
2023/07/03 03:13:16;;;;;;;14.57;3.90;;;13.80;99.90;;;;;;5095576;28;20267;-42
2023/07/03 03:15:42;;;;;;;20.73;4.37;;;13.90;99.90;;;;;;5096221;28;20233;-43
2023/07/03 03:18:08;;;;;;;21.03;4.63;;;13.90;99.90;;;;;;5095711;28;20179;-45
2023/07/03 03:20:33;;;;;;;22.13;4.70;;;13.90;99.90;;;;;;5095451;28;20240;-43
2023/07/03 03:22:59;;;;;;;17.63;3.97;;;13.90;99.90;;;;;;5095602;28;20179;-42
2023/07/03 03:25:25;;;;;;;23.23;4.57;;;13.90;99.90;;;;;;5095119;28;20193;-41
2023/07/03 03:27:50;;;;;;;16.67;4.40;;;13.90;99.90;;;;;;5094870;28;20183;-43
2023/07/03 03:30:16;;;;;;;16.13;3.77;;;13.90;99.90;;;;;;5094853;28;20171;-41
2023/07/03 03:32:43;;;;;;;13.97;3.70;;;13.90;99.90;;;;;;5094616;28;20186;-41
2023/07/03 03:35:09;;;;;;;21.50;4.10;;;13.90;99.90;;;;;;5095120;28;20263;-40
2023/07/03 03:37:35;;;;;;;17.30;4.23;;;13.90;99.90;;;;;;5093358;28;20600;-41
2023/07/03 03:40:00;;;;;;;19.93;3.93;;;13.90;99.90;;;;;;5094263;28;20214;-41
2023/07/03 03:42:26;;;;;;;20.43;4.60;;;13.90;99.90;;;;;;5093174;28;20169;-42
2023/07/03 03:44:52;;;;;;;23.27;5.80;;;13.90;99.90;;;;;;5094301;28;20195;-40
2023/07/03 03:47:19;;;;;;;17.63;4.03;;;13.90;99.90;;;;;;5094342;28;20261;-40
2023/07/03 03:49:45;;;;;;;17.83;3.97;;;13.80;99.90;;;;;;5095508;28;20171;-42
2023/07/03 03:52:10;;;;;;;14.80;4.27;;;13.90;99.90;;;;;;5094935;28;20186;-42
2023/07/03 03:54:36;;;;;;;22.07;4.90;;;13.90;99.90;;;;;;5094275;28;20190;-41
2023/07/03 03:57:03;;;;;;;16.27;4.03;;;13.90;99.90;;;;;;5094819;28;20684;-40
2023/07/03 03:59:28;;;;;;;20.23;4.40;;;13.90;99.90;;;;;;5094120;28;20215;-42
2023/07/03 04:01:54;;;;;;;23.63;4.63;;;13.90;99.90;;;;;;5094039;28;20258;-40
2023/07/03 04:04:19;;;;;;;18.07;3.73;;;13.90;99.90;;;;;;5094173;28;20229;-43
2023/07/03 04:06:45;;;;;;;18.93;4.60;;;13.90;99.90;;;;;;5094109;28;20175;-44
2023/07/03 04:09:11;;;;;;;18.43;4.27;;;13.90;99.90;;;;;;5093961;28;20193;-43
2023/07/03 04:11:37;;;;;;;18.17;4.97;;;13.90;99.90;;;;;;5093987;28;20177;-40
2023/07/03 04:14:02;;;;;;;15.17;4.50;;;13.90;99.90;;;;;;5094029;28;20611;-42
2023/07/03 04:16:30;;;;;;;19.10;4.27;;;14.00;99.90;;;;;;5094110;28;20373;-43
2023/07/03 04:18:56;;;;;;;19.37;3.67;;;14.00;99.90;;;;;;5093795;28;20252;-41
2023/07/03 04:21:22;;;;;;;23.30;5.53;;;14.00;99.90;;;;;;5094768;28;20203;-44
2023/07/03 04:23:48;;;;;;;16.50;4.20;;;14.00;99.90;;;;;;5093858;28;20190;-42
2023/07/03 04:26:14;;;;;;;27.80;5.33;;;14.00;99.90;;;;;;5093722;28;20195;-41
2023/07/03 04:28:40;;;;;;;19.23;4.10;;;14.10;99.90;;;;;;5093770;28;20227;-41
2023/07/03 04:31:06;;;;;;;13.77;3.80;;;14.10;99.90;;;;;;5093744;28;20254;-44
2023/07/03 04:33:31;;;;;;;10.93;4.00;;;14.10;99.90;;;;;;5093604;28;20605;-42
2023/07/03 04:35:57;;;;;;;26.20;5.40;;;14.10;99.90;;;;;;5093904;28;20244;-44
2023/07/03 04:38:25;;;;;;;17.57;4.63;;;14.20;99.90;;;;;;5093664;28;20269;-42
2023/07/03 04:40:53;;;;;;;20.23;4.97;;;14.20;99.90;;;;;;5093896;28;20198;-41
2023/07/03 04:43:19;;;;;;;18.93;4.73;;;14.20;99.90;;;;;;5093935;28;20182;-42
2023/07/03 04:45:50;;;;;;;13.67;4.57;;;14.20;99.90;;;;;;5093572;28;20234;-43
2023/07/03 04:48:19;;;;;;;16.57;3.90;;;14.30;99.90;;;;;;5094545;28;20172;-42
2023/07/03 04:50:49;;;;;;;17.67;4.50;;;14.30;99.90;;;;;;5093503;28;20202;-40
2023/07/03 04:53:16;;;;;;;20.30;4.40;;;14.30;99.90;;;;;;5093797;28;20176;-42
2023/07/03 04:55:41;;;;;;;16.07;4.00;;;14.30;99.90;;;;;;5093358;28;20210;-43
2023/07/03 04:58:07;;;;;;;20.47;5.13;;;14.40;99.90;;;;;;5092865;28;20175;-39
2023/07/03 05:00:33;;;;;;;20.43;4.90;;;14.40;99.90;;;;;;5093293;28;20252;-41
2023/07/03 05:03:02;;;;;;;18.30;4.53;;;14.40;99.90;;;;;;5093521;28;20178;-43
2023/07/03 05:05:28;;;;;;;18.87;4.50;;;14.50;99.90;;;;;;5093222;28;20561;-42
2023/07/03 05:07:54;;;;;;;17.50;5.07;;;14.50;99.90;;;;;;5093787;28;20175;-40
2023/07/03 05:10:21;;;;;;;17.10;4.47;;;14.50;99.90;;;;;;5093267;28;20206;-40
2023/07/03 05:12:47;;;;;;;21.13;4.73;;;14.50;99.90;;;;;;5092012;28;20218;-40
2023/07/03 05:15:14;;;;;;;19.90;4.53;;;14.60;99.90;;;;;;5093425;28;20227;-41
2023/07/03 05:17:40;;;;;;;20.13;5.00;;;14.60;99.90;;;;;;5093972;28;20228;-43
2023/07/03 05:20:12;;;;;;;13.40;3.97;;;14.60;99.90;;;;;;5093408;28;20207;-42
2023/07/03 05:22:39;;;;;;;17.03;4.77;;;14.70;99.90;;;;;;5096287;28;20179;-42
2023/07/03 05:25:05;;;;;;;19.03;4.60;;;14.70;99.90;;;;;;5097444;28;20547;-43
2023/07/03 05:27:32;;;;;;;17.73;4.43;;;14.70;99.90;;;;;;5097362;28;20178;-41
2023/07/03 05:29:57;;;;;;;16.70;4.67;;;14.80;99.90;;;;;;5097297;28;20174;-42
2023/07/03 05:32:23;;;;;;;17.87;4.67;;;14.80;99.90;;;;;;5096947;28;20179;-43
2023/07/03 05:34:49;;;;;;;19.13;5.53;;;14.80;99.90;;;;;;5096812;28;20213;-42
2023/07/03 05:37:14;;;;;;;14.83;4.00;;;14.80;99.90;;;;;;5096892;28;20182;-43
2023/07/03 05:39:40;;;;;;;19.10;4.70;;;14.90;99.90;;;;;;5096707;28;20210;-43
2023/07/03 05:42:07;;;;;;;15.93;4.13;;;14.90;99.90;;;;;;5096988;28;20243;-40
2023/07/03 05:44:32;;;;;;;14.80;4.30;;;14.90;99.90;;;;;;5096529;28;20714;-43
2023/07/03 05:46:58;;;;;;;14.67;4.07;;;15.00;99.90;;;;;;5096595;28;20269;-42
2023/07/03 05:49:23;;;;;;;18.40;5.27;;;15.00;99.90;;;;;;5098366;28;20187;-43
2023/07/03 05:51:49;;;;;;;14.00;4.40;;;15.00;99.90;;;;;;5095476;28;20262;-42
2023/07/03 05:54:16;;;;;;;16.63;4.67;;;15.10;99.90;;;;;;5096850;28;20251;-42
2023/07/03 05:56:43;;;;;;;18.87;5.23;;;15.10;99.90;;;;;;5096593;28;20171;-42
2023/07/03 05:59:08;;;;;;;20.20;5.07;;;15.20;99.90;;;;;;5096364;28;20203;-40
2023/07/03 06:01:34;;;;;;;20.80;4.80;;;15.20;99.90;;;;;;5096538;28;20182;-40
2023/07/03 06:04:00;;;;;;;21.40;4.53;;;15.30;99.90;;;;;;5096308;28;20182;-40
2023/07/03 06:06:25;;;;;;;20.47;4.43;;;15.30;99.90;;;;;;5096295;28;20164;-40
2023/07/03 06:08:51;;;;;;;20.10;5.73;;;15.40;99.90;;;;;;5096202;28;20186;-41
2023/07/03 06:11:16;;;;;;;13.10;3.87;;;15.50;99.90;;;;;;5096181;28;20206;-42
2023/07/03 06:13:42;;;;;;;16.43;4.83;;;15.50;99.90;;;;;;5096199;28;20185;-43
2023/07/03 06:16:07;;;;;;;20.07;4.87;;;15.60;99.90;;;;;;5096081;28;20277;-42
2023/07/03 06:18:33;;;;;;;20.17;5.70;;;15.70;99.90;;;;;;5096007;28;20205;-41
2023/07/03 06:20:58;;;;;;;20.07;4.00;;;15.80;99.90;;;;;;5095831;28;20293;-42
2023/07/03 06:23:24;;;;;;;22.87;5.60;;;15.90;99.90;;;;;;5096283;28;20179;-40
2023/07/03 06:25:50;;;;;;;19.60;4.90;;;15.90;99.90;;;;;;5096193;28;20194;-43
2023/07/03 06:28:16;;;;;;;17.97;5.03;;;16.00;99.90;;;;;;5095841;28;20258;-41
2023/07/03 06:30:48;;;;;;;19.00;4.90;;;16.00;99.90;;;;;;5096020;28;20183;-42
2023/07/03 06:33:14;;;;;;;15.97;4.07;;;16.10;99.90;;;;;;5095403;28;20589;-41
2023/07/03 06:35:40;;;;;;;15.37;4.20;;;16.10;99.90;;;;;;5095666;28;20194;-42
2023/07/03 06:38:07;;;;;;;18.13;4.87;;;16.20;99.90;;;;;;5095435;28;20232;-41
2023/07/03 06:40:32;;;;;;;20.47;5.13;;;16.30;99.90;;;;;;5094231;28;20207;-39
2023/07/03 06:42:58;;;;;;;18.17;4.20;;;16.40;99.90;;;;;;5095825;28;20296;-41
2023/07/03 06:45:24;;;;;;;21.90;4.33;;;16.40;99.90;;;;;;5095597;28;20224;-40
2023/07/03 06:47:50;;;;;;;18.63;4.60;;;16.50;99.90;;;;;;5095546;28;20170;-41
2023/07/03 06:50:15;;;;;;;13.87;4.37;;;16.40;99.90;;;;;;5096715;28;20640;-46
2023/07/03 06:52:41;;;;;;;14.80;4.60;;;16.50;99.90;;;;;;5095323;28;20545;-45
2023/07/03 06:55:07;;;;;;;17.13;5.10;;;16.60;99.90;;;;;;5095352;28;20607;-44
2023/07/03 06:57:34;;;;;;;12.83;4.70;;;16.80;99.90;;;;;;5095454;28;20187;-47
2023/07/03 07:00:00;;;;;;;14.30;4.60;;;16.90;99.90;;;;;;5095365;28;20230;-46
2023/07/03 07:02:25;;;;;;;18.27;5.20;;;17.00;99.90;;;;;;5095179;28;20171;-47
2023/07/03 07:04:53;;;;;;;16.70;4.27;;;17.10;99.90;;;;;;5095378;28;20603;-48
2023/07/03 07:07:19;;;;;;;16.43;4.00;;;17.20;99.90;;;;;;5095351;28;20216;-46
2023/07/03 07:09:45;;;;;;;12.47;4.03;;;17.30;99.90;;;;;;5095231;28;20183;-47
2023/07/03 07:12:10;;;;;;;13.00;3.97;;;17.50;99.90;;;;;;5095205;28;20169;-47
2023/07/03 07:14:36;;;;;;;15.83;4.27;;;17.70;99.90;;;;;;5095011;28;20256;-48
2023/07/03 07:17:01;;;;;;;16.37;4.67;;;17.80;99.90;;;;;;5095110;28;20187;-47
2023/07/03 07:19:27;;;;;;;11.73;4.33;;;18.00;99.90;;;;;;5094927;28;20724;-46
2023/07/03 07:21:52;;;;;;;16.53;4.50;;;18.20;99.90;;;;;;5095008;28;20187;-48
2023/07/03 07:24:21;;;;;;;14.67;4.27;;;18.40;99.90;;;;;;5094770;28;20199;-46
2023/07/03 07:26:48;;;;;;;11.87;4.07;;;18.50;99.90;;;;;;5094670;28;20546;-46
2023/07/03 07:29:14;;;;;;;13.17;3.73;;;18.60;99.90;;;;;;5094906;28;20261;-48
2023/07/03 07:31:40;;;;;;;18.70;4.40;;;18.70;99.90;;;;;;5094519;28;20703;-48
2023/07/03 07:34:07;;;;;;;15.17;3.80;;;18.80;99.90;;;;;;5094708;28;20190;-48
2023/07/03 07:36:34;;;;;;;12.80;3.93;;;18.70;99.90;;;;;;5094454;28;20213;-47
2023/07/03 07:39:01;;;;;;;10.73;4.60;;;18.70;99.90;;;;;;5092986;28;20225;-47
2023/07/03 07:41:27;;;;;;;10.50;3.87;;;18.80;99.90;;;;;;5094631;28;20261;-47
2023/07/03 07:43:54;;;;;;;11.30;3.57;;;18.90;99.90;;;;;;5093651;28;20175;-47
2023/07/03 07:46:21;;;;;;;14.93;3.37;;;19.00;99.90;;;;;;5094291;28;20178;-47
2023/07/03 07:48:47;;;;;;;14.20;3.80;;;19.10;99.90;;;;;;5095960;28;20179;-42
2023/07/03 07:51:13;;;;;;;10.03;3.80;;;19.20;99.90;;;;;;5094268;28;20204;-42
2023/07/03 07:53:39;;;;;;;13.37;3.97;;;19.30;99.90;;;;;;5094340;28;20179;-42
2023/07/03 07:56:07;;;;;;;14.20;3.67;;;19.40;99.90;;;;;;5094603;28;20206;-42
2023/07/03 07:58:33;;;;;;;12.63;3.50;;;19.50;99.90;;;;;;5094105;28;20179;-42
2023/07/03 08:00:58;;;;;;;8.90;2.73;;;19.60;99.90;;;;;;5094079;28;20612;-43
2023/07/03 08:03:25;;;;;;;12.57;2.97;;;19.70;99.90;;;;;;5094183;28;20178;-43
2023/07/03 08:06:00;;;;;;;10.37;3.60;;;19.70;99.90;;;;;;5094010;28;20203;-44
2023/07/03 08:08:26;;;;;;;10.93;3.27;;;19.80;99.90;;;;;;5094307;28;20166;-43
2023/07/03 08:10:57;;;;;;;10.80;3.53;;;19.90;99.90;;;;;;5094119;28;20261;-43
2023/07/03 08:13:24;;;;;;;8.20;3.07;;;19.90;99.90;;;;;;5093967;28;20175;-44
2023/07/03 08:15:50;;;;;;;9.90;3.43;;;20.00;99.90;;;;;;5093833;28;20675;-42
2023/07/03 08:18:16;;;;;;;13.90;2.97;;;20.00;99.90;;;;;;5093899;28;20528;-43
2023/07/03 08:20:43;;;;;;;11.90;2.93;;;20.00;99.90;;;;;;5093763;28;20568;-42
2023/07/03 08:23:08;;;;;;;13.13;3.33;;;20.00;99.90;;;;;;5093908;28;20182;-43
2023/07/03 08:25:34;;;;;;;12.00;3.23;;;20.00;99.90;;;;;;5093896;28;20202;-43
2023/07/03 08:28:00;;;;;;;10.07;2.90;;;20.10;99.90;;;;;;5093999;28;20179;-43
2023/07/03 08:30:25;;;;;;;12.83;3.30;;;20.10;99.90;;;;;;5093719;28;20174;-50
2023/07/03 08:32:51;;;;;;;8.77;2.90;;;20.10;99.90;;;;;;5093931;28;20524;-49
2023/07/03 08:35:17;;;;;;;13.80;3.10;;;20.10;99.90;;;;;;5094172;28;20208;-47
2023/07/03 08:37:43;;;;;;;11.50;3.30;;;20.00;99.90;;;;;;5093571;28;20197;-48
2023/07/03 08:40:10;;;;;;;12.23;3.10;;;19.90;99.90;;;;;;5093410;28;20690;-50
2023/07/03 08:42:44;;;;;;;9.13;2.80;;;19.90;99.90;;;;;;5093964;28;20178;-47
2023/07/03 08:45:14;;;;;;;10.30;3.27;;;19.80;99.90;;;;;;5093503;28;20198;-49
2023/07/03 08:47:41;;;;;;;8.80;2.77;;;19.80;99.90;;;;;;5094061;28;20264;-48
2023/07/03 08:50:09;;;;;;;16.13;3.20;;;19.80;99.90;;;;;;5095114;28;20177;-48
2023/07/03 08:52:53;;;;;;;12.23;3.00;;;19.70;99.90;;;;;;5094126;28;20262;-49
2023/07/03 08:55:23;;;;;;;10.00;3.20;;;19.70;99.90;;;;;;5094126;28;20210;-48
2023/07/03 08:57:49;;;;;;;9.23;3.43;;;19.60;99.90;;;;;;5096338;28;20557;-48
2023/07/03 09:00:15;;;;;;;6.83;1.90;;;19.60;99.90;;;;;;5097449;28;20259;-49
2023/07/03 09:03:05;;;;;;;13.40;2.93;;;19.60;99.90;;;;;;5097679;28;20201;-49
2023/07/03 09:05:30;;;;;;;9.67;2.90;;;19.60;99.90;;;;;;5097389;28;20203;-48
2023/07/03 09:08:01;;;;;;;9.10;3.20;;;19.60;99.90;;;;;;5097361;28;20185;-47
2023/07/03 09:10:35;;;;;;;10.33;3.03;;;19.50;99.90;;;;;;5097603;28;20225;-48
2023/07/03 09:13:03;;;;;;;7.77;2.73;;;19.50;99.90;;;;;;5097550;28;20171;-48
2023/07/03 09:15:38;;;;;;;10.60;2.40;;;19.50;99.90;;;;;;5097100;28;20208;-48
2023/07/03 09:18:11;;;;;;;10.47;3.17;;;19.50;99.90;;;;;;5097366;28;20171;-47
2023/07/03 09:20:37;;;;;;;11.80;2.70;;;19.60;99.90;;;;;;5097398;28;20206;-50
2023/07/03 09:23:20;;;;;;;7.20;2.67;;;19.60;99.90;;;;;;5097336;28;20623;-48
2023/07/03 09:25:58;;;;;;;7.60;2.77;;;19.60;99.90;;;;;;5097294;28;20213;-48
2023/07/03 09:28:25;;;;;;;9.87;3.30;;;19.60;99.90;;;;;;5097093;28;20155;-49
2023/07/03 09:30:53;;;;;;;8.43;2.63;;;19.70;99.90;;;;;;5097215;28;20198;-47
2023/07/03 09:33:19;;;;;;;10.80;2.50;;;19.60;99.90;;;;;;5097145;28;20186;-48
2023/07/03 09:35:47;;;;;;;8.43;2.87;;;19.60;99.90;;;;;;5096784;28;20217;-48
2023/07/03 09:38:20;;;;;;;11.57;2.77;;;19.50;99.90;;;;;;5096525;28;20181;-49
2023/07/03 09:40:48;;;;;;;9.17;3.27;;;19.40;99.90;;;;;;5096708;28;20198;-49
2023/07/03 09:43:18;;;;;;;6.63;2.70;;;19.30;99.90;;;;;;5096980;28;20170;-49
2023/07/03 09:45:45;;;;;;;10.27;2.70;;;19.20;99.90;;;;;;5096633;28;20278;-47
2023/07/03 09:48:19;;;;;;;7.77;2.47;;;19.10;99.90;;;;;;5096556;28;20179;-46
2023/07/03 09:50:45;;;;;;;9.17;2.60;;;19.00;99.90;;;;;;5096514;28;20697;-50
2023/07/03 09:53:16;;;;;;;12.17;2.97;;;18.90;99.90;;;;;;5096475;28;20184;-49
2023/07/03 09:55:43;;;;;;;8.20;3.10;;;18.80;99.90;;;;;;5096466;28;20619;-48
2023/07/03 09:58:16;;;;;;;10.37;3.50;;;18.80;99.90;;;;;;5097018;28;20620;-49
2023/07/03 10:00:51;;;;;;;7.77;2.73;;;18.80;99.90;;;;;;5096573;28;20248;-48
2023/07/03 10:03:31;;;;;;;6.53;2.87;;;18.70;99.90;;;;;;5096235;28;20269;-48
2023/07/03 10:06:12;;;;;;;14.00;3.63;;;18.70;99.90;;;;;;5096474;28;20614;-49
2023/07/03 10:08:49;;;;;;;10.97;3.57;;;18.70;99.90;;;;;;5095746;28;20174;-49
2023/07/03 10:11:21;;;;;;;11.67;3.60;;;18.70;99.90;;;;;;5096153;28;20155;-49
2023/07/03 10:13:48;;;;;;;9.33;3.23;;;18.60;99.90;;;;;;5096644;28;20167;-49
2023/07/03 10:16:15;;;;;;;11.07;3.90;;;18.60;99.90;;;;;;5095956;28;20206;-48
2023/07/03 10:18:48;;;;;;;9.87;3.10;;;18.70;99.90;;;;;;5095944;28;20187;-48
2023/07/03 10:21:17;;;;;;;9.87;3.03;;;18.80;99.90;;;;;;5096307;28;20206;-49
2023/07/03 10:23:44;;;;;;;10.63;3.60;;;18.90;99.90;;;;;;5095856;28;20543;-49
2023/07/03 10:26:21;;;;;;;9.33;3.67;;;19.10;99.90;;;;;;5095879;28;20215;-49
2023/07/03 10:29:11;;;;;;;10.43;3.80;;;19.30;99.90;;;;;;5096106;28;20242;-48
2023/07/03 10:31:55;;;;;;;10.83;3.03;;;19.30;99.90;;;;;;5095765;28;20177;-49
2023/07/03 10:34:42;;;;;;;10.80;3.13;;;19.40;99.90;;;;;;5095906;28;20198;-48
2023/07/03 10:37:11;;;;;;;13.67;3.27;;;19.30;99.90;;;;;;5096012;28;20163;-48
2023/07/03 10:39:53;;;;;;;8.27;2.70;;;19.50;99.90;;;;;;5095403;28;20234;-48
2023/07/03 10:42:33;;;;;;;8.27;2.97;;;19.60;99.90;;;;;;5095982;28;20147;-49
2023/07/03 10:45:13;;;;;;;10.73;3.23;;;19.60;99.90;;;;;;5095773;28;20197;-49
2023/07/03 10:48:03;;;;;;;9.37;2.90;;;19.70;99.90;;;;;;5095545;28;20646;-47
2023/07/03 10:50:34;;;;;;;14.93;4.53;;;19.90;99.90;;;;;;5097259;28;20550;-43
2023/07/03 10:53:42;;;;;;;9.97;3.27;;;20.10;99.90;;;;;;5095432;28;20170;-42
2023/07/03 10:56:41;;;;;;;12.43;3.43;;;20.40;99.90;;;;;;5095076;28;20226;-48
2023/07/03 10:59:25;;;;;;;11.87;3.30;;;20.60;99.90;;;;;;5095011;28;20238;-48
2023/07/03 11:02:22;;;;;;;9.33;3.20;;;20.60;99.90;;;;;;5095416;28;20166;-48
2023/07/03 11:05:15;;;;;;;11.23;3.33;;;20.80;99.90;;;;;;5095018;28;20230;-48
2023/07/03 11:07:54;;;;;;;10.30;3.03;;;20.90;99.90;;;;;;5095422;28;20193;-49
2023/07/03 11:10:49;;;;;;;9.27;3.60;;;20.90;99.90;;;;;;5094999;28;20167;-47
2023/07/03 11:13:17;;;;;;;8.73;3.10;;;21.00;99.90;;;;;;5094122;28;20256;-49
2023/07/03 11:15:54;;;;;;;12.13;3.67;;;21.30;99.90;;;;;;5095104;28;20198;-49
2023/07/03 11:18:34;;;;;;;7.63;3.00;;;21.50;99.90;;;;;;5094411;28;20159;-50
2023/07/03 11:21:06;;;;;;;15.63;3.60;;;21.90;99.90;;;;;;5094921;28;20231;-49
2023/07/03 11:23:42;;;;;;;8.50;3.07;;;22.00;99.90;;;;;;5094705;28;20631;-49
2023/07/03 11:26:29;;;;;;;8.87;2.97;;;22.00;99.90;;;;;;5094768;28;20195;-49
2023/07/03 11:28:56;;;;;;;9.70;3.20;;;22.00;99.90;;;;;;5094960;28;20167;-49
2023/07/03 11:31:24;;;;;;;13.67;3.50;;;22.00;99.90;;;;;;5094604;28;20171;-49
2023/07/03 11:33:52;;;;;;;5.77;2.80;;;21.90;99.90;;;;;;5094871;28;20179;-51
2023/07/03 11:36:57;;;;;;;9.57;2.93;;;21.90;99.90;;;;;;5094448;28;20575;-51
2023/07/03 11:39:29;;;;;;;7.90;2.43;;;21.90;99.90;;;;;;5092193;28;20221;-49
2023/07/03 11:42:00;;;;;;;6.73;2.67;;;22.00;99.90;;;;;;5094408;28;20194;-43
2023/07/03 11:44:48;;;;;;;9.33;3.00;;;22.10;99.90;;;;;;5094536;28;20198;-42
2023/07/03 11:47:23;;;;;;;10.60;2.67;;;22.10;99.90;;;;;;5094687;28;20175;-44
2023/07/03 11:49:57;;;;;;;12.37;3.40;;;22.20;99.90;;;;;;5095905;28;20171;-45
2023/07/03 11:52:27;;;;;;;8.33;3.10;;;22.30;99.90;;;;;;5094583;28;20212;-44
2023/07/03 11:55:06;;;;;;;7.60;3.10;;;22.40;99.90;;;;;;5094326;28;20599;-43
2023/07/03 11:57:39;;;;;;;7.90;3.27;;;22.40;99.90;;;;;;5094274;28;20273;-45
2023/07/03 12:00:25;;;;;;;10.30;3.00;;;22.30;99.90;;;;;;5092783;28;20198;-44
2023/07/03 12:02:58;;;;;;;7.93;3.20;;;22.20;99.90;;;;;;5094269;28;20159;-44
2023/07/03 12:05:42;;;;;;;8.17;2.93;;;22.10;99.90;;;;;;5093978;28;20624;-46
2023/07/03 12:08:38;;;;;;;8.93;3.17;;;22.20;99.90;;;;;;5092643;28;20288;-44
2023/07/03 12:11:05;;;;;;;9.10;3.30;;;22.20;99.90;;;;;;5093687;28;20187;-43
2023/07/03 12:13:46;;;;;;;10.00;3.57;;;22.40;99.90;;;;;;5093832;28;20163;-46
2023/07/03 12:16:44;;;;;;;11.90;3.40;;;22.60;99.90;;;;;;5094097;28;20286;-45
2023/07/03 12:19:10;;;;;;;8.20;3.20;;;22.80;99.90;;;;;;5093898;28;20744;-44
2023/07/03 12:21:43;;;;;;;6.43;2.50;;;22.80;99.90;;;;;;5094105;28;20580;-44
2023/07/03 12:24:20;;;;;;;9.90;2.93;;;22.80;99.90;;;;;;5093807;28;20186;-43
2023/07/03 12:26:51;;;;;;;9.40;3.10;;;22.80;99.90;;;;;;5094198;28;20163;-43
2023/07/03 12:29:18;;;;;;;8.90;2.90;;;22.80;99.90;;;;;;5093760;28;20719;-44
2023/07/03 12:31:53;;;;;;;7.10;2.50;;;22.90;99.90;;;;;;5093926;28;20185;-44
2023/07/03 12:34:23;;;;;;;8.33;2.33;;;23.00;99.90;;;;;;5093833;28;20204;-46
2023/07/03 12:36:48;;;;;;;7.43;2.60;;;23.20;99.90;;;;;;5093573;28;20639;-46
2023/07/03 12:39:14;;;;;;;8.57;2.50;;;23.20;99.90;;;;;;5093282;28;20211;-42
2023/07/03 12:41:41;;;;;;;8.20;2.93;;;23.20;99.90;;;;;;5093775;28;20202;-44
2023/07/03 12:44:10;;;;;;;6.80;2.67;;;23.20;99.90;;;;;;5093434;28;20178;-44
2023/07/03 12:46:39;;;;;;;9.93;2.93;;;23.30;99.90;;;;;;5093488;28;20634;-43
2023/07/03 12:49:11;;;;;;;6.20;2.30;;;23.40;99.90;;;;;;5094726;28;20216;-45